Time;durP1;ratioP1;P1;durP2;ratioP2;P2;SDS_P1;SDS_P2;PMS_P1;PMS_P2;Temp;Humidity;BMP_temperature;BMP_pressure;BME280_temperature;BME280_humidity;BME280_pressure;Samples;Min_cycle;Max_cycle;Signal;HPM_P1;HPM_P2
2024/01/27 00:00:06;;;;;;;39.80;6.77;;;3.10;80.40;;;;;;5028850;28;20372;-71
2024/01/27 00:02:32;;;;;;;44.63;8.73;;;3.10;80.40;;;;;;5031149;28;20063;-71
2024/01/27 00:04:58;;;;;;;42.23;7.23;;;3.00;80.50;;;;;;5026204;28;20057;-71
2024/01/27 00:07:25;;;;;;;38.87;6.70;;;2.90;80.40;;;;;;5028704;28;20080;-72
2024/01/27 00:09:51;;;;;;;43.83;7.27;;;2.90;80.60;;;;;;5030087;28;20048;-71
2024/01/27 00:12:17;;;;;;;45.13;7.27;;;2.80;80.80;;;;;;5028798;28;20053;-71
2024/01/27 00:14:43;;;;;;;46.87;6.93;;;2.80;81.00;;;;;;5033252;28;20062;-71
2024/01/27 00:17:09;;;;;;;47.93;7.23;;;2.80;81.40;;;;;;5028251;28;20132;-71
2024/01/27 00:19:35;;;;;;;45.93;7.77;;;2.90;81.60;;;;;;5029906;28;20048;-71
2024/01/27 00:22:00;;;;;;;47.37;6.70;;;3.00;81.80;;;;;;5009519;28;20053;-72
2024/01/27 00:24:26;;;;;;;45.67;6.90;;;3.00;81.80;;;;;;5025799;28;20213;-71
2024/01/27 00:26:52;;;;;;;45.17;7.20;;;3.10;81.60;;;;;;5031425;28;20103;-71
2024/01/27 00:29:18;;;;;;;46.27;7.27;;;3.10;81.60;;;;;;5014576;28;20050;-73
2024/01/27 00:31:43;;;;;;;46.47;8.90;;;3.10;81.60;;;;;;5026898;28;20041;-71
2024/01/27 00:34:10;;;;;;;43.50;8.73;;;3.10;81.50;;;;;;5032801;28;20401;-71
2024/01/27 00:36:36;;;;;;;51.73;7.23;;;3.00;81.20;;;;;;5019487;28;20045;-73
2024/01/27 00:39:03;;;;;;;42.07;6.43;;;2.90;81.20;;;;;;5006978;28;20064;-71
2024/01/27 00:41:29;;;;;;;35.20;6.57;;;2.90;81.30;;;;;;5021612;28;20076;-71
2024/01/27 00:43:54;;;;;;;39.87;6.90;;;2.90;81.60;;;;;;5017149;28;20072;-71
2024/01/27 00:46:20;;;;;;;36.73;6.30;;;2.90;81.90;;;;;;5008406;28;20057;-72
2024/01/27 00:48:46;;;;;;;42.17;7.37;;;2.90;81.90;;;;;;5031753;28;20086;-72
2024/01/27 00:51:12;;;;;;;36.10;6.93;;;3.00;81.90;;;;;;5039526;28;20058;-72
2024/01/27 00:53:38;;;;;;;40.27;6.37;;;3.00;81.80;;;;;;5037450;28;20041;-72
2024/01/27 00:56:04;;;;;;;45.77;6.37;;;3.00;81.70;;;;;;5038326;28;20057;-71
2024/01/27 00:58:31;;;;;;;39.53;7.43;;;3.00;81.70;;;;;;5042288;28;20056;-71
2024/01/27 01:00:58;;;;;;;42.97;6.47;;;2.90;81.70;;;;;;5040163;28;20045;-71
2024/01/27 01:03:24;;;;;;;43.13;7.03;;;3.00;81.70;;;;;;5037962;28;20081;-71
2024/01/27 01:05:49;;;;;;;38.63;6.47;;;2.90;81.60;;;;;;5013828;28;20661;-71
2024/01/27 01:08:15;;;;;;;39.73;5.73;;;2.90;81.60;;;;;;5028490;28;20049;-70
2024/01/27 01:10:41;;;;;;;38.17;6.17;;;2.90;81.80;;;;;;5038063;28;20052;-71
2024/01/27 01:13:07;;;;;;;46.17;7.10;;;2.90;81.70;;;;;;5043255;28;20049;-71
2024/01/27 01:15:32;;;;;;;41.53;6.50;;;2.90;81.90;;;;;;5043124;28;20096;-71
2024/01/27 01:17:58;;;;;;;49.93;7.13;;;2.90;82.00;;;;;;5022902;28;20894;-72
2024/01/27 01:20:26;;;;;;;36.07;6.93;;;2.90;82.00;;;;;;5040107;28;20048;-73
2024/01/27 01:22:52;;;;;;;46.13;6.80;;;2.90;82.00;;;;;;5043301;28;20041;-71
2024/01/27 01:25:18;;;;;;;42.30;6.87;;;2.90;82.00;;;;;;5036701;28;20488;-71
2024/01/27 01:27:45;;;;;;;52.13;7.00;;;2.90;82.00;;;;;;5034910;28;20045;-71
2024/01/27 01:30:11;;;;;;;51.80;6.97;;;2.90;82.00;;;;;;5033653;28;20084;-72
2024/01/27 01:32:37;;;;;;;37.67;7.23;;;2.90;82.00;;;;;;5033220;28;20078;-74
2024/01/27 01:35:03;;;;;;;42.67;6.53;;;2.90;82.00;;;;;;5032406;28;20080;-72
2024/01/27 01:37:29;;;;;;;35.30;5.77;;;2.90;82.00;;;;;;5010428;28;20056;-72
2024/01/27 01:39:55;;;;;;;34.10;6.20;;;2.90;82.00;;;;;;5030527;28;20049;-72
2024/01/27 01:42:24;;;;;;;37.70;5.43;;;2.90;82.00;;;;;;5032050;28;20595;-72
2024/01/27 01:44:51;;;;;;;40.60;6.07;;;2.90;82.00;;;;;;5033482;28;20052;-73
2024/01/27 01:47:16;;;;;;;43.60;6.73;;;2.90;81.90;;;;;;5015666;28;20124;-72
2024/01/27 01:49:42;;;;;;;37.13;6.40;;;2.80;81.90;;;;;;5030615;28;20597;-72
2024/01/27 01:52:09;;;;;;;41.03;6.63;;;2.80;81.90;;;;;;5030211;28;20049;-72
2024/01/27 01:54:34;;;;;;;26.87;5.93;;;2.80;81.90;;;;;;5020264;28;20469;-72
2024/01/27 01:57:00;;;;;;;33.17;5.93;;;2.80;82.10;;;;;;5029390;28;20057;-72
2024/01/27 01:59:26;;;;;;;41.27;5.87;;;2.80;81.90;;;;;;5032569;28;20131;-71
2024/01/27 02:01:52;;;;;;;36.70;6.20;;;2.80;81.90;;;;;;5029764;28;20599;-71
2024/01/27 02:04:17;;;;;;;30.10;6.07;;;2.80;81.90;;;;;;5032011;28;20049;-71
2024/01/27 02:06:43;;;;;;;37.00;5.60;;;2.70;82.00;;;;;;5027088;28;20061;-71
2024/01/27 02:09:09;;;;;;;33.27;5.57;;;2.70;82.00;;;;;;5014964;28;20412;-71
2024/01/27 02:11:35;;;;;;;34.10;5.93;;;2.70;82.10;;;;;;5030092;28;20050;-71
2024/01/27 02:14:01;;;;;;;34.03;5.77;;;2.70;82.00;;;;;;5034997;28;20133;-71
2024/01/27 02:16:27;;;;;;;36.40;5.80;;;2.60;82.00;;;;;;5031341;28;20419;-72
2024/01/27 02:18:52;;;;;;;38.40;5.93;;;2.50;82.00;;;;;;5031365;28;20099;-72
2024/01/27 02:21:18;;;;;;;37.40;5.90;;;2.50;82.10;;;;;;5009898;28;20053;-71
2024/01/27 02:23:43;;;;;;;39.93;6.23;;;2.50;82.30;;;;;;5037249;28;20057;-72
2024/01/27 02:26:09;;;;;;;39.70;6.40;;;2.60;82.30;;;;;;5029407;28;20045;-72
2024/01/27 02:28:35;;;;;;;33.07;5.73;;;2.60;82.20;;;;;;5038200;28;20091;-71
2024/01/27 02:31:01;;;;;;;44.00;6.50;;;2.50;82.20;;;;;;5037500;28;20073;-71
2024/01/27 02:33:26;;;;;;;38.33;6.57;;;2.50;82.20;;;;;;5012087;28;20060;-72
2024/01/27 02:35:55;;;;;;;39.93;6.07;;;2.50;82.20;;;;;;5016013;28;20455;-71
2024/01/27 02:38:21;;;;;;;38.83;6.23;;;2.70;82.30;;;;;;5031493;28;20524;-71
2024/01/27 02:40:46;;;;;;;32.93;5.23;;;2.60;82.30;;;;;;5034020;28;20060;-73
2024/01/27 02:43:12;;;;;;;39.03;6.10;;;2.60;82.30;;;;;;5013334;28;20552;-71
2024/01/27 02:45:38;;;;;;;43.77;6.37;;;2.70;82.40;;;;;;5037029;28;20400;-71
2024/01/27 02:48:04;;;;;;;38.80;5.10;;;2.70;82.50;;;;;;5042071;28;20049;-71
2024/01/27 02:50:29;;;;;;;44.63;6.07;;;2.70;82.50;;;;;;5039479;28;20049;-71
2024/01/27 02:52:55;;;;;;;32.63;5.80;;;2.80;82.50;;;;;;5044509;28;20059;-71
2024/01/27 02:55:21;;;;;;;32.83;6.03;;;2.80;82.50;;;;;;5038712;28;20745;-72
2024/01/27 02:57:46;;;;;;;32.90;5.50;;;2.80;82.40;;;;;;5022297;28;20045;-72
2024/01/27 03:00:12;;;;;;;38.33;5.33;;;2.80;82.40;;;;;;5033635;28;20103;-72
2024/01/27 03:02:38;;;;;;;33.07;5.53;;;2.90;82.30;;;;;;5038258;28;20617;-72
2024/01/27 03:05:04;;;;;;;43.03;6.43;;;2.80;82.30;;;;;;5042927;28;20094;-71
2024/01/27 03:07:30;;;;;;;35.50;6.10;;;2.90;82.30;;;;;;5039829;28;20518;-73
2024/01/27 03:09:56;;;;;;;44.27;5.70;;;2.90;82.20;;;;;;5042571;28;20085;-71
2024/01/27 03:12:22;;;;;;;29.63;5.33;;;2.80;82.10;;;;;;5038987;28;20053;-71
2024/01/27 03:14:49;;;;;;;32.60;6.37;;;2.80;82.20;;;;;;5018546;28;20131;-71
2024/01/27 03:17:15;;;;;;;40.03;6.07;;;2.80;82.20;;;;;;5040487;28;20507;-71
2024/01/27 03:19:41;;;;;;;40.30;6.10;;;2.90;82.30;;;;;;5033818;28;20172;-71
2024/01/27 03:22:06;;;;;;;34.43;5.80;;;2.90;82.30;;;;;;5031682;28;20500;-71
2024/01/27 03:24:32;;;;;;;34.30;6.03;;;2.90;82.20;;;;;;5030515;28;20432;-72
2024/01/27 03:26:58;;;;;;;30.00;6.30;;;2.90;82.20;;;;;;5032903;28;20060;-71
2024/01/27 03:29:23;;;;;;;34.83;5.40;;;2.90;82.20;;;;;;5020127;28;20133;-72
2024/01/27 03:31:49;;;;;;;32.30;5.17;;;2.90;82.10;;;;;;5010627;28;20417;-71
2024/01/27 03:34:15;;;;;;;28.37;4.83;;;2.90;82.00;;;;;;5031127;28;20060;-71
2024/01/27 03:36:40;;;;;;;31.87;5.57;;;2.90;82.10;;;;;;5035156;28;20071;-71
2024/01/27 03:39:07;;;;;;;35.77;5.70;;;2.90;82.00;;;;;;5012271;28;20076;-71
2024/01/27 03:41:33;;;;;;;37.77;6.07;;;2.90;82.10;;;;;;5033793;28;20057;-71
2024/01/27 03:43:59;;;;;;;38.83;5.53;;;2.90;82.10;;;;;;5023648;28;20075;-72
2024/01/27 03:46:24;;;;;;;38.37;6.10;;;2.90;82.00;;;;;;5031985;28;20045;-72
2024/01/27 03:48:50;;;;;;;36.53;5.77;;;2.90;82.00;;;;;;5029778;28;20060;-72
2024/01/27 03:51:16;;;;;;;26.27;4.63;;;2.80;82.00;;;;;;5015307;28;20052;-71
2024/01/27 03:53:42;;;;;;;34.60;5.67;;;2.80;82.10;;;;;;5033287;28;20076;-72
2024/01/27 03:56:12;;;;;;;31.23;5.43;;;2.80;82.00;;;;;;5014858;28;20489;-71
2024/01/27 03:58:38;;;;;;;32.93;5.97;;;2.80;82.10;;;;;;5034730;28;20128;-73
2024/01/27 04:01:04;;;;;;;30.30;5.20;;;2.80;82.10;;;;;;5032377;28;20132;-71
2024/01/27 04:03:30;;;;;;;33.67;5.90;;;2.80;82.00;;;;;;5035241;28;20151;-71
2024/01/27 04:05:55;;;;;;;35.00;5.67;;;2.70;82.00;;;;;;5034211;28;20045;-73
2024/01/27 04:08:21;;;;;;;30.30;5.20;;;2.70;82.00;;;;;;5031776;28;20059;-71
2024/01/27 04:10:47;;;;;;;33.50;5.67;;;2.70;82.00;;;;;;5031206;28;20081;-72
2024/01/27 04:13:13;;;;;;;37.83;4.83;;;2.50;82.00;;;;;;5034782;28;20080;-71
2024/01/27 04:15:38;;;;;;;29.13;5.00;;;2.50;82.00;;;;;;5027928;28;20041;-72
2024/01/27 04:18:07;;;;;;;31.23;5.40;;;2.50;82.10;;;;;;5037066;28;20396;-71
2024/01/27 04:20:33;;;;;;;27.77;4.90;;;2.50;82.10;;;;;;5029661;28;20045;-71
2024/01/27 04:22:59;;;;;;;27.47;5.23;;;2.50;82.30;;;;;;5032310;28;20145;-74
2024/01/27 04:25:25;;;;;;;33.17;5.33;;;2.40;82.40;;;;;;5027461;28;20049;-71
2024/01/27 04:27:50;;;;;;;31.50;5.13;;;2.40;82.40;;;;;;5031934;28;20053;-72
2024/01/27 04:30:16;;;;;;;34.17;4.63;;;2.40;82.40;;;;;;5034374;28;20530;-71
2024/01/27 04:32:42;;;;;;;28.87;4.47;;;2.30;82.40;;;;;;5033886;28;20044;-72
2024/01/27 04:35:11;;;;;;;33.53;4.73;;;2.20;82.30;;;;;;5028231;28;20091;-71
2024/01/27 04:37:37;;;;;;;29.53;4.60;;;2.20;82.30;;;;;;5013622;28;20053;-71
2024/01/27 04:40:07;;;;;;;32.17;5.77;;;2.10;82.20;;;;;;5029011;28;20054;-71
2024/01/27 04:42:34;;;;;;;25.90;4.60;;;2.00;82.30;;;;;;5035033;28;20110;-72
2024/01/27 04:45:00;;;;;;;29.60;5.77;;;2.00;82.30;;;;;;5027125;28;20068;-71
2024/01/27 04:47:25;;;;;;;34.33;5.47;;;1.90;82.40;;;;;;5015028;28;20432;-72
2024/01/27 04:49:51;;;;;;;35.17;5.27;;;1.90;82.80;;;;;;5018549;28;20111;-72
2024/01/27 04:52:17;;;;;;;33.50;5.73;;;1.90;82.90;;;;;;5041046;28;20160;-71
2024/01/27 04:54:43;;;;;;;35.33;5.23;;;1.90;82.90;;;;;;5018778;28;20063;-71
2024/01/27 04:57:09;;;;;;;33.53;4.70;;;1.90;82.90;;;;;;5040130;28;20049;-71
2024/01/27 04:59:35;;;;;;;35.43;5.83;;;1.90;82.90;;;;;;5039460;28;20041;-72
2024/01/27 05:02:01;;;;;;;29.37;5.30;;;1.90;82.80;;;;;;5017251;28;20072;-70
2024/01/27 05:04:27;;;;;;;41.67;5.20;;;1.80;82.80;;;;;;5020877;28;20123;-72
2024/01/27 05:06:53;;;;;;;31.87;4.80;;;1.80;82.70;;;;;;5038425;28;20053;-73
2024/01/27 05:09:18;;;;;;;34.00;6.10;;;1.70;82.70;;;;;;5034659;28;20057;-71
2024/01/27 05:11:45;;;;;;;37.30;5.73;;;1.70;83.00;;;;;;5015411;28;20054;-71
2024/01/27 05:14:11;;;;;;;30.87;5.17;;;1.70;82.90;;;;;;5011547;28;20069;-72
2024/01/27 05:16:37;;;;;;;39.43;5.50;;;1.70;83.10;;;;;;4981026;28;20049;-72
2024/01/27 05:19:02;;;;;;;36.67;5.70;;;1.70;83.10;;;;;;5008843;28;20037;-73
2024/01/27 05:21:28;;;;;;;42.50;5.90;;;1.70;83.20;;;;;;5025892;28;20523;-73
2024/01/27 05:23:54;;;;;;;29.90;5.20;;;1.80;83.40;;;;;;5019234;28;20161;-72
2024/01/27 05:26:21;;;;;;;30.17;5.00;;;1.80;83.40;;;;;;4996358;28;20296;-71
2024/01/27 05:28:46;;;;;;;37.33;6.30;;;1.80;83.30;;;;;;5019158;28;20378;-71
2024/01/27 05:31:12;;;;;;;30.00;5.03;;;1.80;83.40;;;;;;5027517;28;21172;-72
2024/01/27 05:33:39;;;;;;;35.73;5.80;;;1.80;83.40;;;;;;5025304;28;20058;-71
2024/01/27 05:36:05;;;;;;;36.13;5.60;;;1.80;83.40;;;;;;5000422;28;20100;-71
2024/01/27 05:38:31;;;;;;;34.07;5.13;;;1.80;83.30;;;;;;5015856;28;20135;-72
2024/01/27 05:41:01;;;;;;;42.97;5.87;;;1.80;83.40;;;;;;5021639;28;20052;-71
2024/01/27 05:43:27;;;;;;;32.00;5.43;;;1.70;83.20;;;;;;5031086;28;20048;-71
2024/01/27 05:45:53;;;;;;;36.23;5.60;;;1.70;83.30;;;;;;5038219;28;20583;-71
2024/01/27 05:48:19;;;;;;;27.97;5.47;;;1.70;83.30;;;;;;5039559;28;20057;-71
2024/01/27 05:50:56;;;;;;;35.07;5.33;;;1.70;83.30;;;;;;5038641;28;20080;-71
2024/01/27 05:53:22;;;;;;;31.13;4.70;;;1.70;83.40;;;;;;5038096;28;20481;-72
2024/01/27 05:55:47;;;;;;;36.17;5.20;;;1.70;83.30;;;;;;5040394;28;20510;-72
2024/01/27 05:58:13;;;;;;;39.37;4.87;;;1.70;83.40;;;;;;5040666;28;20049;-71
2024/01/27 06:00:39;;;;;;;32.57;5.17;;;1.70;83.30;;;;;;5041155;28;20178;-72
2024/01/27 06:03:04;;;;;;;28.50;5.20;;;1.60;83.40;;;;;;5036743;28;20052;-71
2024/01/27 06:05:30;;;;;;;36.83;4.43;;;1.60;83.40;;;;;;5041833;28;21042;-71
2024/01/27 06:07:56;;;;;;;33.43;5.73;;;1.60;83.40;;;;;;5046401;28;20048;-71
2024/01/27 06:10:23;;;;;;;32.77;5.13;;;1.60;83.30;;;;;;5040754;28;20056;-72
2024/01/27 06:12:49;;;;;;;26.47;4.57;;;1.50;83.30;;;;;;5045467;28;20587;-71
2024/01/27 06:15:15;;;;;;;37.60;5.47;;;1.50;83.30;;;;;;5024090;28;20041;-72
2024/01/27 06:17:41;;;;;;;37.03;5.13;;;1.50;83.30;;;;;;5013288;28;20387;-71
2024/01/27 06:20:07;;;;;;;29.20;5.17;;;1.40;83.30;;;;;;5015770;28;20060;-71
2024/01/27 06:22:33;;;;;;;34.27;5.27;;;1.40;83.20;;;;;;5014513;28;20075;-72
2024/01/27 06:24:59;;;;;;;28.33;5.60;;;1.40;83.20;;;;;;5041542;28;20507;-72
2024/01/27 06:27:25;;;;;;;35.87;6.60;;;1.40;83.30;;;;;;5040229;28;20544;-72
2024/01/27 06:29:51;;;;;;;30.57;6.30;;;1.30;83.20;;;;;;5027650;28;20056;-71
2024/01/27 06:32:16;;;;;;;37.97;6.27;;;1.30;83.30;;;;;;5032838;28;20056;-73
2024/01/27 06:34:42;;;;;;;25.97;6.40;;;1.30;83.50;;;;;;5027161;28;20073;-73
2024/01/27 06:37:07;;;;;;;32.83;6.47;;;1.40;83.60;;;;;;4999115;28;20572;-72
2024/01/27 06:39:33;;;;;;;33.00;5.97;;;1.30;83.60;;;;;;5031988;28;20517;-71
2024/01/27 06:41:59;;;;;;;39.47;6.23;;;1.30;83.60;;;;;;5041597;28;20045;-71
2024/01/27 06:44:24;;;;;;;37.40;6.67;;;1.20;83.70;;;;;;5042294;28;20052;-71
2024/01/27 06:46:50;;;;;;;40.63;5.73;;;1.20;83.70;;;;;;5046323;28;20423;-72
2024/01/27 06:49:16;;;;;;;37.87;6.43;;;1.20;83.70;;;;;;5052586;28;20464;-73
2024/01/27 06:51:44;;;;;;;36.87;6.57;;;1.20;83.60;;;;;;5053388;28;20060;-71
2024/01/27 06:54:09;;;;;;;37.63;6.73;;;1.20;83.80;;;;;;5038795;28;20036;-72
2024/01/27 06:56:35;;;;;;;44.87;7.60;;;1.20;83.90;;;;;;5046633;28;20064;-71
2024/01/27 06:59:01;;;;;;;42.07;7.40;;;1.30;84.00;;;;;;5027288;28;20053;-72
2024/01/27 07:01:26;;;;;;;38.93;6.60;;;1.30;84.00;;;;;;5024096;28;20458;-73
2024/01/27 07:03:52;;;;;;;45.17;6.47;;;1.40;84.30;;;;;;5042182;28;20859;-71
2024/01/27 07:06:18;;;;;;;44.40;7.37;;;1.40;84.10;;;;;;5039334;28;20487;-71
2024/01/27 07:08:44;;;;;;;39.77;6.60;;;1.40;84.10;;;;;;5040437;28;20568;-71
2024/01/27 07:11:09;;;;;;;43.03;7.27;;;1.40;84.20;;;;;;5041014;28;20111;-71
2024/01/27 07:13:35;;;;;;;41.93;6.90;;;1.40;84.20;;;;;;5031659;28;20516;-71
2024/01/27 07:16:01;;;;;;;42.53;7.00;;;1.40;84.10;;;;;;5044040;28;20052;-72
2024/01/27 07:18:29;;;;;;;49.10;7.53;;;1.40;84.00;;;;;;5051144;28;20111;-71
2024/01/27 07:20:54;;;;;;;35.40;6.33;;;1.30;83.90;;;;;;5043104;28;20051;-72
2024/01/27 07:23:20;;;;;;;37.93;6.20;;;1.20;84.00;;;;;;5049698;28;20045;-71
2024/01/27 07:25:46;;;;;;;39.10;6.33;;;1.20;84.00;;;;;;5044660;28;20076;-71
2024/01/27 07:28:12;;;;;;;39.43;6.67;;;1.20;84.00;;;;;;5043160;28;20496;-72
2024/01/27 07:30:38;;;;;;;35.97;6.73;;;1.10;84.00;;;;;;5045989;28;20052;-72
2024/01/27 07:33:04;;;;;;;50.50;7.17;;;1.20;84.10;;;;;;5043364;28;20048;-71
2024/01/27 07:35:31;;;;;;;39.23;6.60;;;1.20;84.20;;;;;;5040200;28;20076;-71
2024/01/27 07:37:57;;;;;;;41.70;6.53;;;1.20;84.30;;;;;;5046516;28;20083;-72
2024/01/27 07:40:23;;;;;;;38.33;6.93;;;1.20;84.20;;;;;;5045001;28;20074;-71
2024/01/27 07:42:48;;;;;;;37.60;7.63;;;1.20;84.20;;;;;;5049087;28;20049;-72
2024/01/27 07:45:15;;;;;;;48.70;7.40;;;1.20;84.30;;;;;;5039332;28;20052;-71
2024/01/27 07:47:41;;;;;;;35.57;6.43;;;1.30;84.40;;;;;;5053407;28;20063;-71
2024/01/27 07:50:07;;;;;;;40.77;6.80;;;1.40;84.50;;;;;;5039534;28;20399;-71
2024/01/27 07:52:32;;;;;;;42.57;7.47;;;1.40;84.50;;;;;;5044431;28;20060;-71
2024/01/27 07:54:58;;;;;;;41.93;7.70;;;1.40;84.40;;;;;;5040250;28;20056;-71
2024/01/27 07:57:24;;;;;;;33.63;7.10;;;1.40;84.40;;;;;;5043748;28;20068;-72
2024/01/27 07:59:50;;;;;;;46.13;7.57;;;1.40;84.50;;;;;;5042061;28;20539;-71
2024/01/27 08:02:15;;;;;;;48.07;7.53;;;1.40;84.50;;;;;;5045836;28;20118;-72
2024/01/27 08:04:41;;;;;;;41.50;6.73;;;1.40;84.60;;;;;;5041959;28;20171;-72
2024/01/27 08:07:09;;;;;;;49.17;6.97;;;1.50;84.70;;;;;;5028529;28;20061;-71
2024/01/27 08:09:36;;;;;;;51.77;7.23;;;1.60;84.70;;;;;;5052050;28;20056;-71
2024/01/27 08:12:02;;;;;;;52.97;7.80;;;1.60;84.70;;;;;;5041590;28;20052;-72
2024/01/27 08:14:31;;;;;;;50.03;8.57;;;1.70;84.70;;;;;;5039790;28;20049;-72
2024/01/27 08:16:57;;;;;;;43.13;8.90;;;1.70;84.70;;;;;;5036387;28;20574;-72
2024/01/27 08:19:23;;;;;;;47.23;9.43;;;1.80;84.60;;;;;;5039629;28;20084;-72
2024/01/27 08:21:49;;;;;;;36.33;7.60;;;1.80;84.60;;;;;;5038171;28;20075;-73
2024/01/27 08:24:15;;;;;;;54.63;8.80;;;1.90;84.60;;;;;;5039300;28;20501;-73
2024/01/27 08:26:44;;;;;;;41.90;7.30;;;2.00;84.50;;;;;;5036667;28;20144;-73
2024/01/27 08:29:10;;;;;;;33.87;6.87;;;2.10;84.50;;;;;;5040002;28;20044;-73
2024/01/27 08:31:38;;;;;;;36.03;7.70;;;2.20;84.40;;;;;;5040001;28;20553;-74
2024/01/27 08:34:04;;;;;;;39.47;7.23;;;2.20;84.40;;;;;;5023399;28;20056;-71
2024/01/27 08:36:30;;;;;;;42.83;7.73;;;2.20;84.40;;;;;;5043593;28;20041;-71
2024/01/27 08:38:55;;;;;;;39.57;7.70;;;2.30;84.50;;;;;;5046010;28;20060;-71
2024/01/27 08:41:22;;;;;;;42.33;8.43;;;2.40;84.50;;;;;;5040317;28;21219;-71
2024/01/27 08:43:48;;;;;;;30.33;7.30;;;2.50;84.30;;;;;;5039317;28;20040;-72
2024/01/27 08:46:15;;;;;;;36.37;7.27;;;2.50;84.20;;;;;;5041869;28;20049;-73
2024/01/27 08:48:41;;;;;;;48.70;8.37;;;2.50;84.10;;;;;;5029536;28;20063;-74
2024/01/27 08:51:10;;;;;;;37.03;7.63;;;2.50;84.10;;;;;;5053690;28;20048;-72
2024/01/27 08:53:36;;;;;;;39.77;7.90;;;2.50;84.10;;;;;;5044965;28;20194;-72
2024/01/27 08:56:02;;;;;;;45.17;7.97;;;2.60;84.00;;;;;;5028910;28;20514;-72
2024/01/27 08:58:27;;;;;;;38.07;8.37;;;2.60;84.00;;;;;;5022329;28;20056;-72
2024/01/27 09:00:53;;;;;;;45.73;8.63;;;2.70;84.00;;;;;;5040589;28;20048;-74
2024/01/27 09:03:20;;;;;;;38.60;8.43;;;2.70;84.00;;;;;;5029957;28;20369;-72
2024/01/27 09:05:46;;;;;;;40.97;8.00;;;2.70;84.10;;;;;;5018609;28;20048;-72
2024/01/27 09:08:12;;;;;;;41.80;8.83;;;2.80;84.10;;;;;;5022600;28;20042;-73
2024/01/27 09:10:38;;;;;;;43.20;9.00;;;2.90;84.20;;;;;;5028417;28;20427;-72
2024/01/27 09:13:04;;;;;;;42.47;10.03;;;3.10;84.10;;;;;;5041074;28;20048;-72
2024/01/27 09:15:30;;;;;;;48.50;9.17;;;3.30;83.90;;;;;;5039458;28;20472;-72
2024/01/27 09:17:56;;;;;;;39.23;8.60;;;3.50;83.50;;;;;;5016724;28;20117;-73
2024/01/27 09:20:22;;;;;;;33.83;8.90;;;3.50;83.40;;;;;;5029999;28;20053;-71
2024/01/27 09:22:49;;;;;;;37.10;8.03;;;3.50;83.30;;;;;;5024289;28;20049;-72
2024/01/27 09:25:15;;;;;;;34.63;7.87;;;3.50;83.40;;;;;;5006543;28;20112;-72
2024/01/27 09:27:41;;;;;;;40.67;8.50;;;3.50;83.40;;;;;;5016614;28;20053;-72
2024/01/27 09:30:07;;;;;;;36.07;9.20;;;3.50;83.50;;;;;;5039118;28;20053;-72
2024/01/27 09:32:33;;;;;;;33.63;8.93;;;3.50;83.40;;;;;;5037552;28;20137;-73
2024/01/27 09:34:59;;;;;;;40.80;10.33;;;3.50;83.60;;;;;;5012564;28;20124;-73
2024/01/27 09:37:25;;;;;;;41.90;9.93;;;3.60;83.60;;;;;;5034709;28;20171;-74
2024/01/27 09:39:50;;;;;;;44.17;9.93;;;3.60;83.70;;;;;;5044328;28;20037;-72
2024/01/27 09:42:20;;;;;;;47.10;10.37;;;3.70;83.70;;;;;;5039049;28;20045;-73
2024/01/27 09:44:49;;;;;;;40.83;9.70;;;3.70;83.70;;;;;;5033430;28;21342;-73
2024/01/27 09:47:15;;;;;;;33.87;10.60;;;3.80;83.70;;;;;;5037365;28;20500;-73
2024/01/27 09:49:42;;;;;;;40.97;11.03;;;3.90;83.60;;;;;;5020427;28;20048;-73
2024/01/27 09:52:09;;;;;;;39.20;11.13;;;4.00;83.70;;;;;;5035208;28;20546;-72
2024/01/27 09:54:36;;;;;;;46.17;10.73;;;4.10;83.70;;;;;;5018352;28;20834;-72
2024/01/27 09:57:02;;;;;;;41.50;10.87;;;4.20;83.60;;;;;;5019725;28;20049;-73
2024/01/27 09:59:29;;;;;;;33.30;10.47;;;4.30;83.50;;;;;;5038639;28;20527;-72
2024/01/27 10:01:57;;;;;;;36.97;9.77;;;4.40;83.40;;;;;;5040114;28;20067;-73
2024/01/27 10:04:25;;;;;;;36.30;11.10;;;4.50;83.40;;;;;;5014502;28;20057;-73
2024/01/27 10:06:51;;;;;;;38.67;10.33;;;4.90;82.90;;;;;;5015778;28;20051;-73
2024/01/27 10:09:18;;;;;;;34.30;10.00;;;5.30;82.60;;;;;;5036383;28;20319;-73
2024/01/27 10:11:47;;;;;;;39.50;9.93;;;5.60;82.00;;;;;;5031370;28;20132;-73
2024/01/27 10:14:13;;;;;;;33.70;9.13;;;5.90;81.10;;;;;;5006486;28;20051;-72
2024/01/27 10:16:43;;;;;;;33.97;8.30;;;6.40;80.30;;;;;;5036237;28;20408;-74
2024/01/27 10:19:17;;;;;;;28.33;8.27;;;6.60;80.00;;;;;;5034408;28;20053;-73
2024/01/27 10:21:43;;;;;;;31.93;8.87;;;6.60;79.40;;;;;;5033400;28;20111;-73
2024/01/27 10:24:09;;;;;;;30.47;8.77;;;6.70;78.90;;;;;;5035513;28;20041;-73
2024/01/27 10:26:35;;;;;;;31.00;8.63;;;6.80;79.20;;;;;;5031260;28;20054;-73
2024/01/27 10:29:01;;;;;;;26.10;7.33;;;7.00;78.80;;;;;;5015824;28;20484;-73
2024/01/27 10:31:33;;;;;;;31.17;8.77;;;6.90;78.30;;;;;;5035240;28;20406;-73
2024/01/27 10:34:01;;;;;;;32.37;8.33;;;6.80;78.30;;;;;;5018037;28;20047;-74
2024/01/27 10:36:38;;;;;;;29.63;8.63;;;6.70;78.60;;;;;;5032208;28;20049;-73
2024/01/27 10:39:17;;;;;;;36.47;9.13;;;7.00;78.70;;;;;;5028520;28;20500;-73
2024/01/27 10:41:47;;;;;;;30.87;7.90;;;7.50;78.10;;;;;;5022631;28;20480;-73
2024/01/27 10:44:18;;;;;;;31.23;7.70;;;7.90;77.70;;;;;;5041069;28;20052;-74
2024/01/27 10:46:48;;;;;;;31.65;8.25;;;8.10;76.80;;;;;;5041914;28;20057;-73
2024/01/27 10:49:16;;;;;;;30.33;7.93;;;8.40;76.50;;;;;;5037407;28;20118;-76
2024/01/27 10:51:50;;;;;;;26.47;7.90;;;8.70;76.00;;;;;;5040158;28;20524;-73
2024/01/27 10:54:23;;;;;;;28.63;7.67;;;9.40;76.00;;;;;;5031910;28;20081;-75
2024/01/27 10:56:51;;;;;;;30.70;8.37;;;9.80;74.50;;;;;;5033206;28;20045;-73
2024/01/27 10:59:19;;;;;;;29.50;7.83;;;9.60;73.10;;;;;;5039656;28;20049;-74
2024/01/27 11:01:46;;;;;;;27.87;8.10;;;9.50;74.00;;;;;;5042237;28;20063;-73
2024/01/27 11:04:13;;;;;;;27.63;7.77;;;9.40;74.60;;;;;;5043433;28;20037;-73
2024/01/27 11:06:41;;;;;;;25.90;6.53;;;9.60;74.00;;;;;;5035397;28;20119;-73
2024/01/27 11:09:08;;;;;;;24.57;6.37;;;10.00;73.70;;;;;;5041953;28;20055;-73
2024/01/27 11:11:35;;;;;;;35.37;6.00;;;10.50;73.00;;;;;;5038624;28;20072;-74
2024/01/27 11:14:01;;;;;;;26.87;6.07;;;10.30;72.20;;;;;;5035467;28;20048;-73
2024/01/27 11:16:28;;;;;;;24.47;5.27;;;10.00;71.90;;;;;;5037730;28;20140;-75
2024/01/27 11:18:54;;;;;;;21.50;5.27;;;10.10;72.80;;;;;;5034049;28;20049;-74
2024/01/27 11:21:20;;;;;;;22.40;5.23;;;10.00;71.20;;;;;;5012953;28;20050;-73
2024/01/27 11:23:47;;;;;;;24.10;5.97;;;10.00;71.40;;;;;;5035764;28;20041;-74
2024/01/27 11:26:19;;;;;;;25.23;5.90;;;10.10;72.10;;;;;;5033334;28;20045;-74
2024/01/27 11:28:45;;;;;;;24.43;5.60;;;10.30;71.10;;;;;;5032856;28;20045;-74
2024/01/27 11:31:11;;;;;;;22.27;5.27;;;10.40;70.30;;;;;;5033506;28;20049;-72
2024/01/27 11:33:45;;;;;;;22.70;4.77;;;10.70;71.00;;;;;;5011226;28;20654;-73
2024/01/27 11:36:20;;;;;;;21.17;4.73;;;11.30;70.20;;;;;;5032642;28;20049;-73
2024/01/27 11:38:46;;;;;;;21.70;5.40;;;11.70;68.90;;;;;;5029406;28;20425;-73
2024/01/27 11:41:11;;;;;;;21.07;5.13;;;11.90;67.80;;;;;;5029563;28;20080;-74
2024/01/27 11:43:37;;;;;;;24.23;5.43;;;12.10;66.80;;;;;;5034861;28;20049;-73
2024/01/27 11:46:03;;;;;;;25.23;5.17;;;12.30;66.60;;;;;;5028007;28;20527;-73
2024/01/27 11:48:29;;;;;;;27.63;5.23;;;12.50;66.80;;;;;;5033545;28;20136;-74
2024/01/27 11:51:10;;;;;;;25.93;5.50;;;12.50;66.60;;;;;;5032182;28;20500;-75
2024/01/27 11:53:36;;;;;;;18.95;5.68;;;12.30;65.70;;;;;;5031301;28;20443;-74
2024/01/27 11:56:03;;;;;;;24.35;6.10;;;12.30;66.00;;;;;;5031416;28;20132;-74
2024/01/27 11:58:30;;;;;;;27.63;6.00;;;12.20;66.20;;;;;;5029998;28;20111;-73
2024/01/27 12:00:56;;;;;;;25.97;5.47;;;12.20;66.50;;;;;;5031891;28;20098;-73
2024/01/27 12:03:22;;;;;;;23.43;5.60;;;12.00;66.70;;;;;;5029007;28;20138;-73
2024/01/27 12:05:48;;;;;;;29.23;5.60;;;12.00;66.70;;;;;;5028868;28;21277;-74
2024/01/27 12:08:13;;;;;;;25.58;5.57;;;11.90;66.80;;;;;;5028035;28;20057;-72
2024/01/27 12:10:39;;;;;;;23.10;6.00;;;11.30;67.30;;;;;;5030478;28;20050;-73
2024/01/27 12:13:05;;;;;;;21.10;5.03;;;10.60;68.30;;;;;;5028016;28;20479;-72
2024/01/27 12:15:31;;;;;;;25.23;5.43;;;10.00;69.20;;;;;;5028319;28;20388;-73
2024/01/27 12:17:56;;;;;;;27.50;6.00;;;9.70;70.10;;;;;;5028502;28;20053;-75
2024/01/27 12:20:23;;;;;;;24.10;5.40;;;10.00;69.80;;;;;;5012363;28;20592;-73
2024/01/27 12:22:50;;;;;;;26.43;5.30;;;10.50;69.40;;;;;;5011413;28;20079;-73
2024/01/27 12:25:17;;;;;;;27.70;5.97;;;11.00;68.60;;;;;;5010239;28;20045;-73
2024/01/27 12:27:43;;;;;;;24.80;6.07;;;11.00;67.80;;;;;;5030722;28;20048;-73
2024/01/27 12:30:10;;;;;;;33.33;6.23;;;10.70;68.50;;;;;;5031788;28;20077;-72
2024/01/27 12:32:36;;;;;;;19.03;5.23;;;10.40;68.60;;;;;;5021811;28;20398;-72
2024/01/27 12:35:05;;;;;;;19.93;5.03;;;10.30;69.10;;;;;;5027409;28;20060;-73
2024/01/27 12:37:31;;;;;;;21.07;5.30;;;10.40;69.00;;;;;;5011304;28;20068;-73
2024/01/27 12:39:57;;;;;;;24.10;4.87;;;10.30;69.00;;;;;;5031703;28;20139;-74